createdAt,value
2018-12-12T00:00:58.270Z,98773.64
2018-12-12T00:04:52.145Z,98768.30
2018-12-12T00:07:22.398Z,98762.06
2018-12-12T00:09:51.818Z,98767.79
2018-12-12T00:12:20.985Z,98762.44
2018-12-12T00:14:50.558Z,98758.22
2018-12-12T00:17:19.731Z,98759.39
2018-12-12T00:19:48.950Z,98754.45
2018-12-12T00:22:18.381Z,98753.04
2018-12-12T00:24:47.572Z,98754.58
2018-12-12T00:27:16.997Z,98757.00
2018-12-12T00:29:46.241Z,98757.70
2018-12-12T00:32:15.421Z,98745.59
2018-12-12T00:34:44.613Z,98750.05
2018-12-12T00:37:13.808Z,98747.95
2018-12-12T00:39:42.972Z,98753.16
2018-12-12T00:42:12.140Z,98749.67
2018-12-12T00:44:41.567Z,98746.97
2018-12-12T00:49:06.675Z,98745.63
2018-12-12T00:51:36.315Z,98751.19
2018-12-12T00:54:05.492Z,98749.31
2018-12-12T00:56:34.932Z,98748.02
2018-12-12T00:59:04.361Z,98739.91
2018-12-12T01:06:03.098Z,98744.64
2018-12-12T01:08:32.511Z,98747.47
2018-12-12T01:11:19.112Z,98751.22
2018-12-12T01:13:48.279Z,98748.00
2018-12-12T01:16:17.445Z,98752.20
2018-12-12T01:18:46.640Z,98754.70
2018-12-12T01:21:15.801Z,98754.61
2018-12-12T01:23:44.974Z,98761.58
2018-12-12T01:26:15.006Z,98765.55
2018-12-12T01:28:44.452Z,98767.05
2018-12-12T01:31:13.618Z,98770.39
2018-12-12T01:33:43.027Z,98769.78
2018-12-12T01:36:12.195Z,98770.55
2018-12-12T01:38:41.610Z,98762.87
2018-12-12T01:41:10.784Z,98762.77
2018-12-12T01:43:40.232Z,98759.77
2018-12-12T01:46:09.412Z,98749.78
2018-12-12T01:48:38.581Z,98755.49
2018-12-12T02:00:59.852Z,98746.31
2018-12-12T02:03:29.285Z,98745.36
2018-12-12T02:05:58.449Z,98750.72
2018-12-12T02:08:27.873Z,98744.41
2018-12-12T02:10:57.324Z,98742.94
2018-12-12T02:13:38.788Z,98738.84
2018-12-12T02:16:09.782Z,98743.55
2018-12-12T02:18:45.223Z,98742.56
2018-12-12T02:21:14.404Z,98741.85
2018-12-12T02:23:43.562Z,98742.31
2018-12-12T02:26:12.752Z,98740.25
2018-12-12T02:28:41.937Z,98745.03
2018-12-12T02:31:11.119Z,98752.83
2018-12-12T02:33:40.309Z,98751.94
2018-12-12T02:36:09.487Z,98752.36
2018-12-12T02:38:39.167Z,98749.78
2018-12-12T02:41:08.350Z,98760.52
2018-12-12T02:43:37.778Z,98757.41
2018-12-12T02:46:06.955Z,98755.93
2018-12-12T02:48:36.363Z,98760.71
2018-12-12T02:51:05.553Z,98760.13
2018-12-12T02:53:34.716Z,98760.02
2018-12-12T02:56:04.124Z,98752.34
2018-12-12T02:58:33.291Z,98749.27
2018-12-12T03:01:02.454Z,98753.01
2018-12-12T03:03:31.632Z,98752.08
2018-12-12T03:06:00.790Z,98755.20
2018-12-12T03:08:29.956Z,98758.94
2018-12-12T03:10:59.382Z,98755.34
2018-12-12T03:13:28.813Z,98759.60
2018-12-12T03:15:57.998Z,98755.14
2018-12-12T03:18:27.417Z,98758.57
2018-12-12T03:20:56.904Z,98759.64
2018-12-12T03:23:26.071Z,98762.86
2018-12-12T03:25:55.489Z,98759.54
2018-12-12T03:28:24.670Z,98758.61
2018-12-12T03:30:54.091Z,98762.87
2018-12-12T03:33:23.255Z,98757.91
2018-12-12T03:35:52.420Z,98759.47
2018-12-12T03:38:21.861Z,98752.63
2018-12-12T03:40:51.225Z,98746.08
2018-12-12T03:43:20.390Z,98739.23
2018-12-12T03:45:49.564Z,98740.00
2018-12-12T03:48:20.934Z,98736.16
2018-12-12T03:50:50.543Z,98733.14
2018-12-12T03:53:20.003Z,98732.00
2018-12-12T03:55:49.172Z,98728.69
2018-12-12T03:58:18.350Z,98729.96
2018-12-12T04:00:47.525Z,98736.39
2018-12-12T04:03:16.961Z,98735.25
2018-12-12T04:05:46.199Z,98731.62
2018-12-12T04:08:15.394Z,98741.59
2018-12-12T04:10:44.594Z,98741.20
2018-12-12T04:13:13.768Z,98747.64
2018-12-12T04:15:42.973Z,98737.57
2018-12-12T04:18:12.277Z,98744.00
2018-12-12T04:20:41.442Z,98743.69
2018-12-12T04:23:10.619Z,98744.41
2018-12-12T04:25:39.787Z,98744.52
2018-12-12T04:28:09.205Z,98743.69
2018-12-12T04:30:38.398Z,98738.29
2018-12-12T04:33:07.575Z,98749.28
2018-12-12T04:35:36.752Z,98750.53
2018-12-12T04:38:05.909Z,98744.52
2018-12-12T04:40:35.591Z,98748.25
2018-12-12T04:43:05.042Z,98748.25
2018-12-12T04:45:34.479Z,98750.86
2018-12-12T04:48:03.646Z,98745.16
2018-12-12T04:50:33.162Z,98747.23
2018-12-12T04:53:02.349Z,98742.87
2018-12-12T04:55:31.511Z,98741.73
2018-12-12T04:58:01.303Z,98737.69
2018-12-12T05:00:30.760Z,98745.98
2018-12-12T05:03:00.215Z,98746.22
2018-12-12T05:05:29.483Z,98755.55
2018-12-12T05:07:58.927Z,98751.50
2018-12-12T05:10:28.351Z,98756.69
2018-12-12T05:12:57.540Z,98756.67
2018-12-12T05:15:56.622Z,98753.95
2018-12-12T05:18:26.061Z,98752.51
2018-12-12T05:20:55.248Z,98758.91
2018-12-12T05:23:24.440Z,98752.97
2018-12-12T05:25:53.605Z,98760.69
2018-12-12T05:28:22.769Z,98760.33
2018-12-12T05:30:51.940Z,98764.66
2018-12-12T05:33:21.125Z,98755.92
2018-12-12T05:35:50.569Z,98758.27
2018-12-12T05:38:19.989Z,98754.52
2018-12-12T05:40:49.444Z,98753.45
2018-12-12T05:43:18.610Z,98755.27
2018-12-12T05:45:48.329Z,98755.47
2018-12-12T05:48:17.501Z,98756.67
2018-12-12T05:50:46.662Z,98760.98
2018-12-12T05:53:15.843Z,98754.20
2018-12-12T05:55:45.796Z,98759.23
2018-12-12T05:58:15.618Z,98756.72
2018-12-12T06:00:45.042Z,98753.56
2018-12-12T06:03:14.200Z,98753.13
2018-12-12T06:05:43.380Z,98757.28
2018-12-12T06:08:13.797Z,98755.77
2018-12-12T06:10:42.979Z,98755.73
2018-12-12T06:13:15.082Z,98757.24
2018-12-12T06:15:44.249Z,98752.02
2018-12-12T06:18:15.967Z,98753.86
2018-12-12T06:20:45.116Z,98751.85
2018-12-12T06:23:14.304Z,98753.13
2018-12-12T06:25:43.473Z,98745.99
2018-12-12T06:28:12.636Z,98748.88
2018-12-12T06:30:41.815Z,98748.58
2018-12-12T06:33:11.217Z,98744.91
2018-12-12T06:35:40.438Z,98747.67
2018-12-12T06:38:09.837Z,98745.27
2018-12-12T06:40:39.006Z,98747.53
2018-12-12T06:43:08.188Z,98744.91
2018-12-12T06:45:37.691Z,98747.98
2018-12-12T06:48:06.874Z,98744.83
2018-12-12T06:50:36.043Z,98747.09
2018-12-12T06:53:05.198Z,98747.09
2018-12-12T06:55:34.359Z,98749.33
2018-12-12T06:58:03.759Z,98755.22
2018-12-12T07:00:32.969Z,98756.70
2018-12-12T07:03:02.097Z,98751.16
2018-12-12T07:05:31.709Z,98756.16
2018-12-12T07:08:00.884Z,98757.42
2018-12-12T07:10:30.070Z,98754.54
2018-12-12T07:12:59.498Z,98755.45
2018-12-12T07:15:29.014Z,98756.58
2018-12-12T07:17:58.190Z,98755.83
2018-12-12T07:20:27.644Z,98754.48
2018-12-12T07:22:57.121Z,98756.66
2018-12-12T07:25:26.305Z,98757.79
2018-12-12T07:27:55.489Z,98766.19
2018-12-12T07:30:24.907Z,98763.48
2018-12-12T07:32:54.071Z,98771.38
2018-12-12T07:35:23.236Z,98769.50
2018-12-12T07:37:52.461Z,98771.16
2018-12-12T07:40:21.618Z,98770.11
2018-12-12T07:42:50.784Z,98768.53
2018-12-12T07:45:19.958Z,98771.32
2018-12-12T07:47:49.122Z,98769.19
2018-12-12T07:50:18.354Z,98776.56
2018-12-12T07:52:47.771Z,98772.50
2018-12-12T07:55:16.931Z,98769.44
2018-12-12T07:57:46.119Z,98770.41
2018-12-12T08:00:15.516Z,98772.07
2018-12-12T08:02:44.952Z,98777.27
2018-12-12T08:05:14.109Z,98771.63
2018-12-12T08:07:43.682Z,98767.83
2018-12-12T08:10:13.085Z,98771.45
2018-12-12T08:12:42.505Z,98771.97
2018-12-12T08:15:11.686Z,98767.83
2018-12-12T08:17:40.894Z,98770.54
2018-12-12T08:20:10.139Z,98771.32
2018-12-12T08:22:40.011Z,98770.80
2018-12-12T08:25:09.176Z,98772.50
2018-12-12T08:27:39.368Z,98764.75
2018-12-12T08:30:09.026Z,98770.55
2018-12-12T08:32:40.095Z,98770.08
2018-12-12T08:35:09.268Z,98771.51
2018-12-12T08:37:38.456Z,98773.99
2018-12-12T08:40:09.309Z,98777.31
2018-12-12T08:42:38.512Z,98777.31
2018-12-12T08:45:07.688Z,98773.24
2018-12-12T08:47:36.925Z,98777.58
2018-12-12T08:50:08.307Z,98779.49
2018-12-12T08:52:37.743Z,98773.52
2018-12-12T08:55:07.480Z,98776.22
2018-12-12T08:57:36.655Z,98782.20
2018-12-12T09:00:08.257Z,98780.59
2018-12-12T09:02:37.415Z,98779.23
2018-12-12T09:05:06.603Z,98782.77
2018-12-12T09:07:35.781Z,98790.45
2018-12-12T09:10:06.722Z,98786.16
2018-12-12T09:12:36.324Z,98783.45
2018-12-12T09:15:06.517Z,98793.99
2018-12-12T09:17:35.873Z,98793.77
2018-12-12T09:20:06.422Z,98799.72
2018-12-12T09:22:35.604Z,98801.07
2018-12-12T09:25:05.949Z,98805.66
2018-12-12T09:27:35.128Z,98802.65
2018-12-12T09:30:05.867Z,98803.48
2018-12-12T09:32:35.127Z,98804.53
2018-12-12T09:35:05.156Z,98805.05
2018-12-12T09:37:34.369Z,98798.50
2018-12-12T09:40:03.548Z,98796.92
2018-12-12T09:42:32.762Z,98795.05
2018-12-12T09:45:01.969Z,98795.34
2018-12-12T09:47:31.343Z,98792.94
2018-12-12T09:50:00.521Z,98795.66
2018-12-12T09:52:29.701Z,98793.02
2018-12-12T09:54:58.929Z,98795.47
2018-12-12T09:57:28.682Z,98795.25
2018-12-12T09:59:57.927Z,98790.13
2018-12-12T10:02:27.331Z,98791.27
2018-12-12T10:04:56.769Z,98789.91
2018-12-12T10:07:25.931Z,98786.06
2018-12-12T10:09:55.184Z,98786.29
2018-12-12T10:12:24.642Z,98787.07
2018-12-12T10:14:54.099Z,98788.42
2018-12-12T10:17:23.320Z,98784.89
2018-12-12T10:19:52.776Z,98784.94
2018-12-12T10:22:22.234Z,98790.13
2018-12-12T10:24:51.411Z,98787.19
2018-12-12T10:27:21.026Z,98784.48
2018-12-12T10:29:50.468Z,98788.02
2018-12-12T10:32:19.633Z,98784.03
2018-12-12T10:34:49.063Z,98785.21
2018-12-12T10:37:18.225Z,98781.02
2018-12-12T10:39:47.680Z,98769.13
2018-12-12T10:42:17.094Z,98769.73
2018-12-12T10:44:46.321Z,98762.42
2018-12-12T10:47:15.483Z,98768.42
2018-12-12T10:49:44.713Z,98768.49
2018-12-12T10:52:14.131Z,98767.14
2018-12-12T10:54:43.549Z,98765.48
2018-12-12T10:57:12.753Z,98766.53
2018-12-12T10:59:42.331Z,98763.82
2018-12-12T11:02:29.182Z,98763.82
2018-12-12T11:04:58.828Z,98761.41
2018-12-12T11:07:28.665Z,98758.40
2018-12-12T11:09:58.084Z,98756.52
2018-12-12T11:12:27.512Z,98757.64
2018-12-12T11:14:56.710Z,98748.39
2018-12-12T11:17:25.897Z,98745.22
2018-12-12T11:19:55.318Z,98748.76
2018-12-12T11:22:24.534Z,98744.69
2018-12-12T11:24:53.942Z,98745.30
2018-12-12T11:27:23.160Z,98742.39
2018-12-12T11:29:52.406Z,98741.94
2018-12-12T11:32:21.946Z,98733.58
2018-12-12T11:34:51.465Z,98735.00
2018-12-12T11:37:20.875Z,98724.72
2018-12-12T11:39:50.046Z,98728.79
2018-12-12T11:42:19.234Z,98724.47
2018-12-12T11:44:48.421Z,98713.80
2018-12-12T11:47:18.279Z,98719.84
2018-12-12T11:49:47.443Z,98715.73
2018-12-12T11:52:16.934Z,98716.54
2018-12-12T11:54:46.098Z,98707.95
2018-12-12T11:57:15.841Z,98706.13
2018-12-12T11:59:45.266Z,98708.29
2018-12-12T12:02:15.901Z,98713.52
2018-12-12T12:04:45.058Z,98709.56
2018-12-12T12:07:14.210Z,98705.87
2018-12-12T12:09:43.389Z,98709.68
2018-12-12T12:12:12.558Z,98700.81
2018-12-12T12:14:41.745Z,98700.97
2018-12-12T12:17:11.188Z,98699.19
2018-12-12T12:19:40.595Z,98698.27
2018-12-12T12:22:10.094Z,98695.86
2018-12-12T12:24:39.258Z,98695.94
